Time;durP1;ratioP1;P1;durP2;ratioP2;P2;SDS_P1;SDS_P2;PMS_P1;PMS_P2;Temp;Humidity;BMP_temperature;BMP_pressure;BME280_temperature;BME280_humidity;BME280_pressure;Samples;Min_cycle;Max_cycle;Signal;HPM_P1;HPM_P2
2021/12/07 00:01:55;;;;;;;51.33;24.12;;;;;;;9.78;100.00;100519.63;1732792;82;20992;-67
2021/12/07 00:04:24;;;;;;;49.75;23.07;;;;;;;9.77;100.00;100509.80;1732389;81;21023;-67
2021/12/07 00:06:52;;;;;;;47.03;23.92;;;;;;;9.75;100.00;100493.61;1731652;82;21461;-67
2021/12/07 00:09:19;;;;;;;55.10;24.37;;;;;;;9.79;100.00;100500.30;1733479;82;21516;-67
2021/12/07 00:11:48;;;;;;;45.30;22.93;;;;;;;9.84;100.00;100510.38;1726963;82;21019;-67
2021/12/07 00:14:23;;;;;;;47.85;23.40;;;;;;;9.82;100.00;100508.32;1729806;82;21058;-67
2021/12/07 00:16:45;;;;;;;49.73;23.80;;;;;;;9.82;100.00;100510.89;1730825;82;21039;-67
2021/12/07 00:19:12;;;;;;;51.10;23.52;;;;;;;9.80;100.00;100521.69;1734488;82;21030;-67
2021/12/07 00:21:42;;;;;;;53.55;24.50;;;;;;;9.82;100.00;100522.00;1704588;82;21709;-67
2021/12/07 00:24:11;;;;;;;50.90;23.95;;;;;;;9.83;100.00;100517.27;1732282;81;21023;-67
2021/12/07 00:26:41;;;;;;;47.70;22.95;;;;;;;9.81;100.00;100511.78;1728214;82;21529;-67
2021/12/07 00:29:11;;;;;;;51.18;23.75;;;;;;;9.81;100.00;100497.63;1727464;82;21031;-67
2021/12/07 00:31:49;;;;;;;48.17;24.00;;;;;;;9.83;100.00;100486.84;1729389;81;21546;-67
2021/12/07 00:34:23;;;;;;;48.65;23.50;;;;;;;9.81;100.00;100479.21;1731942;82;21766;-67
2021/12/07 00:36:47;;;;;;;48.68;23.57;;;;;;;9.86;100.00;100484.61;1728043;81;21621;-67
2021/12/07 00:39:21;;;;;;;47.03;22.70;;;;;;;9.89;100.00;100472.90;1726154;82;21035;-67
2021/12/07 00:41:49;;;;;;;;;;;;;;;9.92;100.00;100475.36;1742886;81;21018;-67
2021/12/07 00:44:18;;;;;;;50.70;22.95;;;;;;;9.93;100.00;100476.55;1733181;81;20095;-67
2021/12/07 00:46:46;;;;;;;45.58;21.33;;;;;;;9.92;100.00;100479.22;1725712;82;21546;-67
2021/12/07 00:49:15;;;;;;;46.68;23.15;;;;;;;9.94;100.00;100476.12;1725409;82;21039;-67
2021/12/07 00:51:43;;;;;;;44.73;21.37;;;;;;;9.93;100.00;100468.84;1733135;82;21074;-67
2021/12/07 00:54:11;;;;;;;44.13;21.85;;;;;;;9.96;100.00;100455.88;1730851;82;21027;-66
2021/12/07 00:56:38;;;;;;;43.20;21.65;;;;;;;9.97;100.00;100450.27;1729230;81;21040;-67
2021/12/07 00:59:05;;;;;;;40.60;20.60;;;;;;;9.99;100.00;100451.87;1733875;82;21019;-67
2021/12/07 01:01:33;;;;;;;41.80;20.35;;;;;;;10.00;100.00;100443.72;1730006;81;21546;-67
2021/12/07 01:04:00;;;;;;;39.05;20.48;;;;;;;10.00;100.00;100442.44;1732716;82;21038;-69
2021/12/07 01:06:33;;;;;;;40.75;19.65;;;;;;;10.00;100.00;100438.13;1733698;82;21055;-67
2021/12/07 01:09:12;;;;;;;41.48;20.02;;;;;;;10.01;100.00;100435.09;1736022;82;21024;-67
2021/12/07 01:25:32;;;;;;;40.30;19.30;;;;;;;10.06;100.00;100429.31;1739327;82;21591;-67
2021/12/07 01:28:04;;;;;;;40.92;19.65;;;;;;;10.09;100.00;100418.05;1726316;80;21042;-67
2021/12/07 01:30:39;;;;;;;45.38;20.08;;;;;;;10.07;100.00;100409.11;1706045;82;21076;-67
2021/12/07 01:35:55;;;;;;;47.13;20.75;;;;;;;10.08;100.00;100403.08;1710230;82;21039;-67
2021/12/07 01:39:29;;;;;;;43.45;19.80;;;;;;;10.07;100.00;100405.71;1723599;80;21068;-67
2021/12/07 01:41:18;;;;;;;40.83;19.15;;;;;;;10.03;100.00;100395.55;1728838;81;21587;-67
2021/12/07 01:59:55;;;;;;;34.40;17.62;;;;;;;10.17;100.00;100392.38;1727130;82;20970;-67
2021/12/07 02:02:27;;;;;;;34.50;16.95;;;;;;;10.20;100.00;100393.53;1739018;82;21122;-67
2021/12/07 02:04:55;;;;;;;32.88;16.65;;;;;;;10.23;100.00;100398.98;1704479;82;21023;-68
2021/12/07 02:07:23;;;;;;;33.38;16.82;;;;;;;10.21;100.00;100396.47;1731915;82;21382;-67
2021/12/07 02:09:56;;;;;;;32.13;16.12;;;;;;;10.19;100.00;100399.56;1721209;82;21032;-67
2021/12/07 02:12:21;;;;;;;34.75;16.27;;;;;;;10.21;100.00;100398.22;1735009;80;21535;-67
2021/12/07 02:14:48;;;;;;;32.60;16.95;;;;;;;10.20;100.00;100390.96;1733793;82;21066;-67
2021/12/07 02:17:22;;;;;;;30.37;16.02;;;;;;;10.21;100.00;100388.76;1736442;82;21717;-67
2021/12/07 02:19:48;;;;;;;38.80;17.32;;;;;;;10.22;100.00;100386.59;1740792;82;20980;-67
2021/12/07 02:22:17;;;;;;;33.10;16.60;;;;;;;10.22;100.00;100380.16;1738338;82;21054;-68
2021/12/07 02:24:47;;;;;;;33.88;17.52;;;;;;;10.26;100.00;100377.00;1739368;82;21155;-67
2021/12/07 02:27:14;;;;;;;37.63;17.32;;;;;;;10.26;100.00;100373.14;1739483;82;21003;-67
2021/12/07 02:29:43;;;;;;;32.83;17.87;;;;;;;10.30;100.00;100371.27;1740496;81;21036;-67
2021/12/07 02:32:09;;;;;;;35.92;18.17;;;;;;;10.27;100.00;100370.11;1739956;82;21595;-67
2021/12/07 02:34:53;;;;;;;37.05;18.73;;;;;;;10.30;100.00;100369.55;1739402;82;21166;-67
2021/12/07 02:37:09;;;;;;;36.50;18.60;;;;;;;10.33;100.00;100369.86;1740465;80;21137;-67
2021/12/07 02:39:40;;;;;;;32.38;17.45;;;;;;;10.30;100.00;100368.70;1731798;82;21538;-67
2021/12/07 02:42:07;;;;;;;35.58;17.95;;;;;;;10.32;100.00;100368.17;1737367;81;21016;-68
2021/12/07 02:44:35;;;;;;;41.35;21.45;;;;;;;10.33;100.00;100373.72;1737009;82;21076;-67
2021/12/07 02:47:04;;;;;;;45.55;24.12;;;;;;;10.37;100.00;100365.78;1726948;81;21008;-67
2021/12/07 02:49:32;;;;;;;40.15;20.32;;;;;;;10.38;100.00;100370.05;1734019;82;21011;-67
2021/12/07 02:52:02;;;;;;;40.58;20.70;;;;;;;10.39;100.00;100372.16;1731201;82;20975;-67
2021/12/07 02:54:36;;;;;;;37.15;19.80;;;;;;;10.39;100.00;100370.88;1741485;81;21019;-67
2021/12/07 02:57:08;;;;;;;36.35;18.77;;;;;;;10.40;100.00;100364.80;1738357;82;21614;-67
2021/12/07 02:59:48;;;;;;;37.78;19.87;;;;;;;10.40;100.00;100363.52;1714266;82;21012;-67
2021/12/07 03:02:17;;;;;;;36.53;18.73;;;;;;;10.40;100.00;100365.66;1739078;82;21053;-67
2021/12/07 03:04:57;;;;;;;37.48;18.73;;;;;;;10.40;100.00;100366.95;1729539;81;21532;-67
2021/12/07 03:07:23;;;;;;;43.38;20.08;;;;;;;10.42;100.00;100372.00;1737650;81;20995;-67
2021/12/07 03:26:10;;;;;;;30.32;17.50;;;;;;;10.45;100.00;100366.73;1709369;82;21503;-67
2021/12/07 03:28:44;;;;;;;29.40;17.45;;;;;;;10.46;100.00;100364.98;1725635;82;21043;-67
2021/12/07 03:31:14;;;;;;;30.12;17.77;;;;;;;10.46;100.00;100366.27;1719861;82;21072;-67
2021/12/07 03:33:42;;;;;;;30.35;18.00;;;;;;;10.43;100.00;100359.07;1727677;81;21043;-67
2021/12/07 03:36:12;;;;;;;33.75;17.67;;;;;;;10.43;100.00;100356.95;1726950;82;21497;-67
2021/12/07 03:38:40;;;;;;;29.20;17.67;;;;;;;10.43;100.00;100355.67;1734650;82;21543;-67
2021/12/07 03:41:08;;;;;;;28.55;17.45;;;;;;;10.46;100.00;100359.37;1724149;82;20984;-67
2021/12/07 03:43:36;;;;;;;32.30;18.48;;;;;;;10.47;100.00;100362.34;1729639;82;21025;-67
2021/12/07 03:46:04;;;;;;;29.65;17.98;;;;;;;10.45;100.00;100356.44;1730518;82;21603;-67
2021/12/07 03:48:32;;;;;;;27.90;17.55;;;;;;;10.50;100.00;100354.92;1730397;81;21036;-67
2021/12/07 03:50:59;;;;;;;26.45;17.57;;;;;;;10.49;100.00;100364.39;1729203;81;21066;-67
2021/12/07 03:53:27;;;;;;;25.50;16.45;;;;;;;10.53;100.00;100364.63;1731995;81;21552;-67
2021/12/07 03:55:57;;;;;;;27.07;17.15;;;;;;;10.52;100.00;100357.84;1730157;81;21519;-67
2021/12/07 03:58:24;;;;;;;27.22;17.17;;;;;;;10.52;100.00;100358.27;1741310;81;21036;-67
2021/12/07 04:00:51;;;;;;;24.95;16.35;;;;;;;10.53;100.00;100374.93;1731856;82;21016;-68
2021/12/07 04:03:20;;;;;;;25.27;16.50;;;;;;;10.54;100.00;100374.04;1736956;81;21007;-67
2021/12/07 04:05:52;;;;;;;24.00;15.53;;;;;;;10.55;100.00;100387.27;1733032;81;21049;-67
2021/12/07 04:08:25;;;;;;;24.40;16.80;;;;;;;10.50;100.00;100403.83;1725036;82;21070;-67
2021/12/07 04:10:54;;;;;;;24.55;16.25;;;;;;;10.50;100.00;100402.11;1736208;81;21044;-67
2021/12/07 04:13:22;;;;;;;23.65;16.00;;;;;;;10.51;100.00;100405.05;1735882;81;20964;-68
2021/12/07 04:15:50;;;;;;;25.50;16.97;;;;;;;10.51;100.00;100411.48;1735040;81;20980;-67
2021/12/07 04:18:18;;;;;;;27.27;16.80;;;;;;;10.55;100.00;100381.30;1736776;81;21589;-67
2021/12/07 04:20:46;;;;;;;29.57;17.12;;;;;;;10.57;100.00;100373.05;1732594;81;21541;-67
2021/12/07 04:23:14;;;;;;;24.45;17.15;;;;;;;10.57;100.00;100359.73;1734360;81;21114;-68
2021/12/07 04:25:41;;;;;;;24.90;17.00;;;;;;;10.55;100.00;100373.12;1726857;82;21126;-67
2021/12/07 04:28:08;;;;;;;26.07;17.87;;;;;;;10.58;100.00;100374.70;1725870;82;20988;-67
2021/12/07 04:30:39;;;;;;;26.23;17.52;;;;;;;10.57;100.00;100381.61;1723161;82;21056;-67
2021/12/07 04:33:09;;;;;;;29.48;18.27;;;;;;;10.58;100.00;100372.14;1728173;82;20970;-67
2021/12/07 04:35:39;;;;;;;29.45;18.35;;;;;;;10.54;100.00;100366.31;1724269;82;21016;-67
2021/12/07 04:38:06;;;;;;;24.95;17.05;;;;;;;10.53;100.00;100372.81;1738546;81;20964;-67
2021/12/07 04:40:34;;;;;;;27.80;18.12;;;;;;;10.55;100.00;100375.69;1732644;82;21027;-67
2021/12/07 04:43:03;;;;;;;27.50;17.85;;;;;;;10.54;100.00;100371.47;1735008;82;21048;-67
2021/12/07 04:45:48;;;;;;;25.95;17.10;;;;;;;10.55;100.00;100374.41;1724885;82;21067;-67
2021/12/07 04:58:42;;;;;;;31.15;20.08;;;;;;;10.59;100.00;100384.94;1736153;81;20971;-67
2021/12/07 05:01:11;;;;;;;33.23;20.37;;;;;;;10.61;100.00;100381.84;1731281;81;21016;-67
2021/12/07 05:03:41;;;;;;;30.70;19.55;;;;;;;10.61;100.00;100383.59;1740762;81;21499;-67
2021/12/07 05:06:10;;;;;;;32.53;20.05;;;;;;;10.57;100.00;100399.63;1730184;81;21008;-68
2021/12/07 05:08:43;;;;;;;31.57;20.12;;;;;;;10.59;100.00;100415.83;1736390;81;21005;-67
2021/12/07 05:13:53;;;;;;;33.02;21.77;;;;;;;10.69;100.00;100427.01;1736719;81;20992;-68
2021/12/07 05:16:27;;;;;;;34.18;21.35;;;;;;;10.71;100.00;100429.06;1735240;81;21130;-68
2021/12/07 05:18:55;;;;;;;34.48;21.77;;;;;;;10.75;100.00;100425.44;1746237;80;21029;-68
2021/12/07 05:24:05;;;;;;;32.60;21.15;;;;;;;10.75;100.00;100422.86;1725327;82;21184;-68
2021/12/07 05:40:07;;;;;;;49.75;30.68;;;;;;;10.59;100.00;100428.70;1728635;81;20999;-67
2021/12/07 05:42:37;;;;;;;43.90;27.62;;;;;;;10.62;100.00;100438.88;1725167;81;20985;-68
2021/12/07 05:45:07;;;;;;;44.10;26.85;;;;;;;10.64;100.00;100431.05;1739542;81;21015;-67
2021/12/07 05:47:35;;;;;;;38.65;24.25;;;;;;;10.65;100.00;100430.17;1739251;82;21044;-68
2021/12/07 05:50:04;;;;;;;39.23;25.57;;;;;;;10.64;100.00;100429.77;1730469;82;21005;-68
2021/12/07 05:52:30;;;;;;;37.58;23.65;;;;;;;10.66;100.00;100422.81;1733109;81;21001;-67
2021/12/07 05:54:57;;;;;;;35.92;22.58;;;;;;;10.67;100.00;100427.53;1736719;82;21043;-67
2021/12/07 05:57:24;;;;;;;37.17;22.67;;;;;;;10.69;100.00;100432.16;1730720;81;21026;-68
2021/12/07 05:59:51;;;;;;;36.98;22.95;;;;;;;10.66;100.00;100421.98;1736665;81;21028;-67
2021/12/07 06:02:18;;;;;;;35.68;23.30;;;;;;;10.67;100.00;100418.52;1733101;81;21569;-67
2021/12/07 06:04:45;;;;;;;40.40;24.30;;;;;;;10.71;100.00;100422.63;1732813;81;20979;-68
2021/12/07 06:07:11;;;;;;;38.95;23.85;;;;;;;10.71;100.00;100418.77;1733915;81;21026;-67
2021/12/07 06:09:38;;;;;;;38.25;24.02;;;;;;;10.73;100.00;100418.23;1731396;81;21008;-67
2021/12/07 06:12:07;;;;;;;37.90;23.47;;;;;;;10.73;100.00;100402.79;1715780;82;21479;-68
2021/12/07 06:14:41;;;;;;;37.88;24.10;;;;;;;10.75;100.00;100402.27;1731875;81;21047;-68
2021/12/07 06:17:04;;;;;;;38.38;23.47;;;;;;;10.79;100.00;100411.52;1733814;81;21067;-67
2021/12/07 06:19:31;;;;;;;40.17;25.00;;;;;;;10.81;100.00;100407.95;1732068;81;21595;-67
2021/12/07 06:21:57;;;;;;;39.25;23.47;;;;;;;10.81;100.00;100401.52;1732357;81;20980;-67
2021/12/07 06:24:24;;;;;;;40.70;26.17;;;;;;;10.81;100.00;100406.67;1727761;81;21019;-67
2021/12/07 06:26:51;;;;;;;45.60;29.12;;;;;;;10.80;100.00;100401.12;1729227;81;21026;-68
2021/12/07 06:29:18;;;;;;;44.77;26.33;;;;;;;10.77;100.00;100402.56;1729069;82;21027;-67
2021/12/07 06:31:45;;;;;;;42.15;25.20;;;;;;;10.77;100.00;100402.56;1732894;81;21527;-67
2021/12/07 06:34:12;;;;;;;39.70;25.23;;;;;;;10.75;100.00;100404.38;1729639;81;21032;-68
2021/12/07 06:36:40;;;;;;;43.95;27.35;;;;;;;10.74;100.00;100417.31;1732811;81;21492;-67
2021/12/07 06:39:09;;;;;;;41.33;27.07;;;;;;;10.73;100.00;100403.62;1732930;81;21047;-67
2021/12/07 06:41:37;;;;;;;42.03;26.30;;;;;;;10.80;100.00;100395.97;1734778;81;21008;-67
2021/12/07 06:44:05;;;;;;;44.73;27.93;;;;;;;10.80;100.00;100381.81;1737334;81;21037;-67
2021/12/07 06:46:31;;;;;;;44.42;28.27;;;;;;;10.72;100.00;100379.22;1715848;82;21551;-68
2021/12/07 06:48:58;;;;;;;45.20;27.82;;;;;;;10.72;100.00;100385.20;1722942;81;21055;-67
2021/12/07 06:51:25;;;;;;;47.45;27.75;;;;;;;10.70;100.00;100384.44;1707941;82;21689;-67
2021/12/07 06:53:52;;;;;;;51.25;32.67;;;;;;;10.66;100.00;100389.34;1731954;81;20992;-67
2021/12/07 06:56:19;;;;;;;48.98;31.57;;;;;;;10.72;100.00;100395.49;1735451;82;21044;-67
2021/12/07 06:58:45;;;;;;;45.45;30.23;;;;;;;10.76;100.00;100388.01;1740593;81;20981;-67
2021/12/07 07:01:12;;;;;;;47.95;29.80;;;;;;;10.77;100.00;100385.00;1743339;81;21001;-67
2021/12/07 07:03:40;;;;;;;49.05;29.82;;;;;;;10.77;100.00;100391.44;1734149;82;21551;-67
2021/12/07 07:06:07;;;;;;;40.67;26.05;;;;;;;10.79;100.00;100383.20;1726204;81;21487;-68
2021/12/07 07:08:33;;;;;;;46.05;26.75;;;;;;;10.76;100.00;100384.61;1726268;81;21011;-68
2021/12/07 07:11:00;;;;;;;43.52;26.40;;;;;;;10.79;100.00;100378.87;1731712;82;21024;-68
2021/12/07 07:13:27;;;;;;;44.70;26.93;;;;;;;10.76;100.00;100377.71;1731004;82;21550;-67
2021/12/07 07:15:54;;;;;;;42.85;26.77;;;;;;;10.80;100.00;100380.98;1729445;82;21566;-67
2021/12/07 07:18:21;;;;;;;44.00;26.33;;;;;;;10.84;100.00;100379.94;1729364;81;21039;-67
2021/12/07 07:20:48;;;;;;;40.08;24.35;;;;;;;10.85;100.00;100383.33;1728942;82;21494;-67
2021/12/07 07:23:14;;;;;;;38.45;23.38;;;;;;;10.86;100.00;100380.70;1731310;82;21012;-67
2021/12/07 07:25:41;;;;;;;41.18;23.73;;;;;;;10.82;100.00;100380.45;1728431;81;21094;-67
2021/12/07 07:28:08;;;;;;;42.95;25.25;;;;;;;10.79;100.00;100378.87;1726166;82;20976;-67
2021/12/07 07:30:37;;;;;;;54.42;31.57;;;;;;;10.77;100.00;100388.87;1733995;83;21036;-67
2021/12/07 07:33:04;;;;;;;75.72;40.50;;;;;;;10.81;100.00;100392.97;1733663;83;21094;-67
2021/12/07 07:35:31;;;;;;;55.80;31.35;;;;;;;10.80;100.00;100399.00;1728811;81;21094;-67
2021/12/07 07:38:00;;;;;;;45.50;27.52;;;;;;;10.79;100.00;100403.33;1729480;81;20983;-67
2021/12/07 07:40:27;;;;;;;38.30;22.75;;;;;;;10.77;100.00;100394.84;1727307;81;21055;-67
2021/12/07 07:42:54;;;;;;;40.08;22.22;;;;;;;10.77;100.00;100385.00;1729513;82;21579;-67
2021/12/07 07:45:23;;;;;;;37.90;22.10;;;;;;;10.79;100.00;100393.48;1735053;81;21004;-67
2021/12/07 07:47:50;;;;;;;39.30;23.62;;;;;;;10.79;100.00;100391.75;1735727;83;21040;-67
2021/12/07 07:50:17;;;;;;;40.03;22.52;;;;;;;10.78;100.00;100391.34;1735247;83;21127;-67
2021/12/07 07:52:45;;;;;;;36.68;21.82;;;;;;;10.78;100.00;100405.51;1726616;82;21523;-67
2021/12/07 07:55:12;;;;;;;36.90;22.58;;;;;;;10.76;100.00;100404.75;1728333;82;21498;-67
2021/12/07 07:57:39;;;;;;;41.30;24.05;;;;;;;10.75;100.00;100409.98;1733079;81;21016;-67
2021/12/07 08:00:11;;;;;;;40.43;23.38;;;;;;;10.74;100.00;100405.73;1729323;82;21519;-67
2021/12/07 08:02:43;;;;;;;39.73;22.58;;;;;;;10.75;100.00;100406.13;1735671;81;21024;-67
2021/12/07 08:05:11;;;;;;;41.88;23.35;;;;;;;10.69;100.00;100400.80;1734426;81;21018;-67
2021/12/07 08:07:39;;;;;;;39.48;23.20;;;;;;;10.71;100.00;100391.73;1726403;81;20991;-67
2021/12/07 08:10:09;;;;;;;37.45;22.35;;;;;;;10.77;100.00;100378.57;1732100;82;21032;-67
2021/12/07 08:12:37;;;;;;;41.58;24.05;;;;;;;10.77;100.00;100373.42;1729748;82;21046;-66
2021/12/07 08:15:06;;;;;;;39.05;22.30;;;;;;;10.73;100.00;100368.03;1726370;82;21562;-67
2021/12/07 08:17:33;;;;;;;42.23;24.07;;;;;;;10.69;100.00;100371.20;1733760;82;21500;-67
2021/12/07 08:20:00;;;;;;;37.42;21.95;;;;;;;10.67;100.00;100370.89;1731169;82;21048;-67
2021/12/07 08:22:30;;;;;;;38.33;22.10;;;;;;;10.66;100.00;100366.17;1735971;83;21047;-67
2021/12/07 08:24:57;;;;;;;40.20;24.07;;;;;;;10.65;100.00;100362.41;1732640;82;21713;-67
2021/12/07 08:27:27;;;;;;;41.75;23.98;;;;;;;10.73;100.00;100357.27;1735726;82;21024;-67
2021/12/07 08:29:54;;;;;;;38.65;22.32;;;;;;;10.77;100.00;100360.09;1734488;82;21648;-67
2021/12/07 08:32:21;;;;;;;36.95;22.37;;;;;;;10.77;100.00;100347.21;1735964;82;21052;-67
2021/12/07 08:34:49;;;;;;;41.70;23.92;;;;;;;10.77;100.00;100354.94;1731390;82;21462;-67
2021/12/07 08:37:15;;;;;;;42.45;23.38;;;;;;;10.84;100.00;100350.31;1735209;82;21004;-67
2021/12/07 08:39:42;;;;;;;38.88;22.80;;;;;;;10.88;100.00;100352.30;1732139;82;21046;-67
2021/12/07 08:42:09;;;;;;;46.28;24.35;;;;;;;10.90;100.00;100347.45;1725402;82;20971;-67
2021/12/07 08:44:38;;;;;;;36.53;21.97;;;;;;;10.92;100.00;100337.91;1732476;82;20993;-67
2021/12/07 08:47:05;;;;;;;35.95;21.15;;;;;;;10.94;100.00;100329.66;1730785;82;21635;-67
2021/12/07 08:49:32;;;;;;;38.15;21.80;;;;;;;10.97;100.00;100321.80;1727710;82;21015;-67
2021/12/07 08:51:59;;;;;;;36.65;21.07;;;;;;;10.99;100.00;100323.02;1729533;82;21530;-67
2021/12/07 08:59:38;;;;;;;37.88;21.45;;;;;;;10.99;100.00;100319.98;1732445;82;21111;-67
2021/12/07 08:59:49;;;;;;;35.43;21.33;;;;;;;10.99;100.00;100320.44;1729312;82;21546;-66
2021/12/07 09:02:20;;;;;;;40.50;23.62;;;;;;;11.02;100.00;100321.09;1729810;82;20988;-66
2021/12/07 09:04:48;;;;;;;40.92;24.35;;;;;;;10.97;100.00;100323.08;1728945;82;21093;-66
2021/12/07 09:07:16;;;;;;;44.70;26.27;;;;;;;10.99;100.00;100317.40;1731299;82;21075;-66
2021/12/07 09:09:43;;;;;;;59.13;30.57;;;;;;;11.03;100.00;100312.94;1731173;82;21011;-67
2021/12/07 09:12:16;;;;;;;43.92;25.37;;;;;;;11.00;100.00;100303.59;1733819;83;21029;-66
2021/12/07 09:14:44;;;;;;;41.37;23.45;;;;;;;11.07;100.00;100300.72;1725619;82;21043;-66
2021/12/07 09:17:14;;;;;;;42.93;22.87;;;;;;;11.16;100.00;100302.85;1731203;81;21133;-66
2021/12/07 09:19:41;;;;;;;39.67;22.20;;;;;;;11.16;100.00;100293.38;1734021;82;21590;-66
2021/12/07 09:22:09;;;;;;;40.63;22.02;;;;;;;11.21;100.00;100286.27;1732428;82;20988;-66
2021/12/07 09:24:36;;;;;;;38.45;21.80;;;;;;;11.29;100.00;100289.72;1734386;82;21075;-66
2021/12/07 09:27:03;;;;;;;38.17;21.17;;;;;;;11.36;100.00;100280.78;1731481;82;20987;-66
2021/12/07 09:29:30;;;;;;;31.68;20.20;;;;;;;11.41;100.00;100283.11;1733921;82;21586;-67
2021/12/07 09:31:57;;;;;;;36.53;20.48;;;;;;;11.46;100.00;100282.44;1730852;82;21028;-66
2021/12/07 09:34:24;;;;;;;33.67;19.82;;;;;;;11.53;100.00;100269.59;1731360;81;21039;-66
2021/12/07 09:36:51;;;;;;;34.10;21.00;;;;;;;11.59;100.00;100261.53;1735788;82;21512;-67
2021/12/07 09:39:19;;;;;;;33.45;20.02;;;;;;;11.65;100.00;100270.70;1733027;83;21095;-66
2021/12/07 09:41:46;;;;;;;34.15;20.30;;;;;;;11.73;100.00;100263.86;1734234;83;21031;-66
2021/12/07 09:44:14;;;;;;;35.05;21.07;;;;;;;11.82;100.00;100258.23;1734282;82;21071;-66
2021/12/07 09:46:42;;;;;;;31.25;19.95;;;;;;;11.94;100.00;100252.88;1727994;82;21088;-66
2021/12/07 09:49:11;;;;;;;33.75;21.15;;;;;;;11.96;100.00;100251.05;1735391;82;21036;-67
2021/12/07 09:51:39;;;;;;;32.98;19.40;;;;;;;12.04;100.00;100242.44;1730405;82;20988;-66
2021/12/07 09:54:09;;;;;;;36.35;20.50;;;;;;;12.17;100.00;100246.02;1730030;82;21467;-66
2021/12/07 09:56:38;;;;;;;33.18;19.48;;;;;;;12.29;100.00;100243.23;1734281;82;21020;-66
2021/12/07 09:59:07;;;;;;;31.42;19.40;;;;;;;12.27;100.00;100235.20;1734883;82;21099;-65
2021/12/07 10:01:36;;;;;;;28.30;17.87;;;;;;;12.32;100.00;100228.02;1735920;82;21516;-66
2021/12/07 10:04:04;;;;;;;31.93;18.70;;;;;;;12.32;100.00;100235.30;1735842;82;21547;-66
2021/12/07 10:06:31;;;;;;;31.27;19.55;;;;;;;12.40;100.00;100236.17;1732719;82;21012;-66
2021/12/07 10:08:58;;;;;;;32.23;19.25;;;;;;;12.41;100.00;100226.23;1730105;82;21031;-66
2021/12/07 10:11:25;;;;;;;35.00;19.20;;;;;;;12.45;100.00;100213.95;1734353;82;21563;-66
2021/12/07 10:13:53;;;;;;;30.65;18.55;;;;;;;12.48;100.00;100221.08;1736001;82;21642;-66
2021/12/07 10:16:23;;;;;;;31.57;19.45;;;;;;;12.41;100.00;100221.06;1732901;81;21030;-65
2021/12/07 10:18:50;;;;;;;33.55;19.85;;;;;;;12.44;100.00;100215.72;1734316;82;21048;-66
2021/12/07 10:21:23;;;;;;;32.42;19.62;;;;;;;12.47;100.00;100218.14;1735006;82;21055;-66
2021/12/07 10:24:01;;;;;;;37.25;20.02;;;;;;;12.40;100.00;100218.92;1730696;82;20992;-66
2021/12/07 10:26:32;;;;;;;31.65;18.67;;;;;;;12.45;100.00;100217.83;1726168;82;21015;-66
2021/12/07 10:29:16;;;;;;;30.32;17.37;;;;;;;12.46;100.00;100213.05;1733271;82;21032;-66
2021/12/07 10:31:53;;;;;;;31.10;17.87;;;;;;;12.50;100.00;100205.51;1727598;81;21035;-66
2021/12/07 10:34:24;;;;;;;30.37;16.25;;;;;;;12.49;100.00;100199.52;1725920;82;20983;-66
2021/12/07 10:36:57;;;;;;;26.25;15.23;;;;;;;12.58;100.00;100200.73;1733237;81;21062;-66
2021/12/07 10:39:29;;;;;;;26.95;15.88;;;;;;;12.60;100.00;100203.59;1729626;82;21034;-65
2021/12/07 10:42:00;;;;;;;27.77;15.63;;;;;;;12.63;100.00;100206.02;1725627;81;21059;-66
2021/12/07 10:44:37;;;;;;;28.45;15.85;;;;;;;12.67;100.00;100209.70;1725938;82;21066;-66
2021/12/07 10:47:13;;;;;;;27.95;16.93;;;;;;;12.74;100.00;100208.44;1733067;83;21059;-66
2021/12/07 10:49:55;;;;;;;28.12;16.73;;;;;;;12.80;100.00;100213.24;1730231;82;21047;-66
2021/12/07 10:52:33;;;;;;;24.15;15.38;;;;;;;12.89;100.00;100202.36;1729198;82;20991;-65
2021/12/07 10:55:20;;;;;;;24.65;15.15;;;;;;;12.86;100.00;100204.31;1726562;82;21015;-65
2021/12/07 10:57:51;;;;;;;24.20;15.20;;;;;;;12.85;100.00;100196.18;1727452;82;21054;-66
2021/12/07 11:00:29;;;;;;;28.70;15.35;;;;;;;12.88;100.00;100189.09;1728392;82;21551;-66
2021/12/07 11:03:04;;;;;;;28.15;14.30;;;;;;;12.90;100.00;100186.42;1735833;81;21516;-66
2021/12/07 11:05:43;;;;;;;25.27;13.83;;;;;;;12.98;100.00;100188.09;1732941;81;21028;-66
2021/12/07 11:08:11;;;;;;;20.55;12.93;;;;;;;13.03;100.00;100185.58;1734628;81;21043;-65
2021/12/07 11:10:45;;;;;;;19.60;12.30;;;;;;;13.13;100.00;100180.70;1730653;82;21050;-66
2021/12/07 11:13:18;;;;;;;17.93;12.40;;;;;;;13.17;100.00;100186.52;1735584;82;20996;-66
2021/12/07 11:15:56;;;;;;;18.98;12.15;;;;;;;13.22;100.00;100182.74;1731135;82;21615;-66
2021/12/07 11:18:34;;;;;;;19.87;12.33;;;;;;;13.16;100.00;100181.82;1730422;81;21039;-66
2021/12/07 11:21:12;;;;;;;19.00;11.95;;;;;;;13.18;100.00;100175.27;1730015;82;21073;-66
2021/12/07 11:23:51;;;;;;;19.30;11.80;;;;;;;13.20;100.00;100166.97;1726191;82;21517;-66
2021/12/07 11:31:51;;;;;;;18.07;10.85;;;;;;;13.13;100.00;100167.78;1728541;81;21015;-66
2021/12/07 11:34:23;;;;;;;19.57;11.50;;;;;;;13.16;100.00;100174.53;1732200;82;21090;-65
2021/12/07 11:36:58;;;;;;;19.62;12.15;;;;;;;13.13;100.00;100163.90;1735221;82;21095;-65
2021/12/07 11:39:35;;;;;;;20.75;11.55;;;;;;;13.12;100.00;100170.45;1726144;82;21020;-66
2021/12/07 11:42:06;;;;;;;17.52;11.12;;;;;;;13.10;100.00;100173.14;1733479;82;21038;-66
2021/12/07 11:44:39;;;;;;;17.87;11.78;;;;;;;13.09;100.00;100177.11;1733125;81;21026;-66
2021/12/07 11:47:06;;;;;;;21.95;12.28;;;;;;;13.03;100.00;100173.95;1722660;82;21066;-66
2021/12/07 11:49:36;;;;;;;22.80;13.08;;;;;;;13.02;100.00;100169.72;1727827;82;21106;-66
2021/12/07 11:52:06;;;;;;;19.37;11.50;;;;;;;13.09;100.00;100169.35;1735239;81;21487;-66
2021/12/07 11:54:40;;;;;;;19.42;11.85;;;;;;;13.09;100.00;100170.65;1736837;82;21071;-66
2021/12/07 11:57:12;;;;;;;17.27;10.90;;;;;;;13.18;100.00;100170.93;1726067;82;21074;-66
2021/12/07 11:59:40;;;;;;;18.62;10.48;;;;;;;13.28;100.00;100169.06;1731668;82;21546;-66
2021/12/07 12:02:08;;;;;;;17.52;11.03;;;;;;;13.34;100.00;100164.84;1728878;82;21010;-66
2021/12/07 12:04:35;;;;;;;17.67;10.50;;;;;;;13.38;100.00;100173.63;1735596;82;21043;-65
2021/12/07 12:07:03;;;;;;;22.62;11.73;;;;;;;13.40;100.00;100174.37;1734647;82;21056;-66
2021/12/07 12:09:32;;;;;;;21.77;11.53;;;;;;;13.35;100.00;100179.45;1734440;82;20991;-66
2021/12/07 12:12:36;;;;;;;18.30;11.60;;;;;;;13.40;100.00;100169.64;1736471;82;21046;-66
2021/12/07 12:15:34;;;;;;;20.07;11.77;;;;;;;13.37;100.00;100164.67;1734637;82;21027;-65
2021/12/07 12:18:15;;;;;;;23.42;12.33;;;;;;;13.30;100.00;100161.64;1734391;82;21512;-66
2021/12/07 12:21:11;;;;;;;21.42;12.93;;;;;;;13.26;100.00;100164.45;1721154;82;21066;-66
2021/12/07 12:24:16;;;;;;;18.67;12.45;;;;;;;13.24;100.00;100163.27;1731040;82;21523;-66
2021/12/07 12:26:45;;;;;;;20.17;12.43;;;;;;;13.24;100.00;100158.11;1726621;82;21035;-66
2021/12/07 12:29:19;;;;;;;21.85;13.30;;;;;;;13.21;100.00;100148.76;1727784;82;21570;-66
2021/12/07 12:31:53;;;;;;;17.87;11.43;;;;;;;13.17;100.00;100153.75;1728553;82;21071;-66
2021/12/07 12:34:28;;;;;;;16.95;11.15;;;;;;;13.09;100.00;100149.97;1729198;83;21058;-65
2021/12/07 12:37:03;;;;;;;18.10;11.68;;;;;;;13.02;100.00;100137.42;1731777;82;21020;-65
2021/12/07 12:39:53;;;;;;;22.90;12.50;;;;;;;12.99;100.00;100140.64;1732112;82;21090;-65
2021/12/07 12:42:43;;;;;;;23.95;12.70;;;;;;;12.93;100.00;100137.14;1728753;82;21545;-65